Time,TemperatureF,DewpointF,PressureIn,WindDirection,WindDirectionDegrees,WindSpeedMPH,WindSpeedGustMPH,Humidity,HourlyPrecipIn,Conditions,Clouds,dailyrainin,SoftwareType,DateUTC
2013-05-22 00:01:00,78.1,77.5,29.63,SSW,202,2.7,-999.0,98,-99.99,,,0.00,Acu-Link.com,2013-05-22 05:01:00,
2013-05-22 00:16:00,77.9,77.3,29.65,ENE,67,0.0,-999.0,98,-99.99,,,0.00,Acu-Link.com,2013-05-22 05:16:00,
2013-05-22 00:31:00,77.7,77.1,29.67,ESE,112,0.0,-999.0,98,-99.99,,,0.00,Acu-Link.com,2013-05-22 05:31:00,
2013-05-22 00:46:00,77.7,77.1,29.67,NNW,337,0.0,-999.0,98,-99.99,,,0.00,Acu-Link.com,2013-05-22 05:46:00,
2013-05-22 01:01:00,77.7,77.1,29.67,ESE,112,0.0,-999.0,98,-99.99,,,0.00,Acu-Link.com,2013-05-22 06:01:00,
2013-05-22 01:16:00,77.5,76.9,29.66,SSE,157,0.0,-999.0,98,-99.99,,,0.00,Acu-Link.com,2013-05-22 06:16:00,
2013-05-22 01:32:00,77.5,76.9,29.65,SSW,202,0.0,-999.0,98,-99.99,,,0.00,Acu-Link.com,2013-05-22 06:32:00,
2013-05-22 01:47:00,77.4,76.8,29.64,South,180,1.7,-999.0,98,-99.99,,,0.00,Acu-Link.com,2013-05-22 06:47:00,
2013-05-22 02:02:00,77.2,76.6,29.63,North,0,3.7,-999.0,98,-99.99,,,0.00,Acu-Link.com,2013-05-22 07:02:00,
2013-05-22 02:17:00,77.2,76.6,29.64,NNE,22,3.2,-999.0,98,-99.99,,,0.00,Acu-Link.com,2013-05-22 07:17:00,
2013-05-22 02:33:00,75.4,74.8,29.64,NNE,22,8.3,-999.0,98,-99.99,,,0.00,Acu-Link.com,2013-05-22 07:33:00,
2013-05-22 02:48:00,73.2,71.0,29.65,NE,45,6.3,-999.0,93,-99.99,,,0.00,Acu-Link.com,2013-05-22 07:48:00,
2013-05-22 03:03:00,72.0,69.5,29.66,NNE,22,9.9,-999.0,92,-99.99,,,0.00,Acu-Link.com,2013-05-22 08:03:00,
2013-05-22 03:24:00,71.2,69.1,29.66,NNW,337,10.9,-999.0,93,-99.99,,,0.00,Acu-Link.com,2013-05-22 08:24:00,
2013-05-22 03:39:00,69.8,69.2,29.63,East,90,4.7,-999.0,98,-99.99,,,0.01,Acu-Link.com,2013-05-22 08:39:00,
2013-05-22 03:54:00,69.3,68.7,29.63,ENE,67,3.7,-999.0,98,-99.99,,,0.01,Acu-Link.com,2013-05-22 08:54:00,
2013-05-22 04:10:00,68.5,67.9,29.64,East,90,3.2,-999.0,98,-99.99,,,0.01,Acu-Link.com,2013-05-22 09:10:00,
2013-05-22 04:25:00,68.7,68.1,29.62,ENE,67,4.2,-999.0,98,-99.99,,,0.01,Acu-Link.com,2013-05-22 09:25:00,
2013-05-22 04:40:00,68.9,68.3,29.64,ESE,112,4.7,-999.0,98,-99.99,,,0.01,Acu-Link.com,2013-05-22 09:40:00,
2013-05-22 04:55:00,69.1,68.5,29.63,SW,225,2.7,-999.0,98,-99.99,,,0.01,Acu-Link.com,2013-05-22 09:55:00,
2013-05-22 05:10:00,69.1,68.5,29.63,South,180,4.7,-999.0,98,-99.99,,,0.01,Acu-Link.com,2013-05-22 10:10:00,
2013-05-22 05:26:00,69.3,68.7,29.61,South,180,3.2,-999.0,98,-99.99,,,0.05,Acu-Link.com,2013-05-22 10:26:00,
2013-05-22 05:41:00,70.5,69.9,29.62,WNW,292,3.7,-999.0,98,-99.99,,,0.06,Acu-Link.com,2013-05-22 10:41:00,
2013-05-22 05:56:00,70.7,70.1,29.61,SE,135,1.7,-999.0,98,-99.99,,,0.09,Acu-Link.com,2013-05-22 10:56:00,
2013-05-22 06:11:00,71.1,70.5,29.63,South,180,1.1,-999.0,98,-99.99,,,0.09,Acu-Link.com,2013-05-22 11:11:00,
2013-05-22 06:26:00,71.4,70.8,29.65,North,0,4.7,-999.0,98,-99.99,,,0.09,Acu-Link.com,2013-05-22 11:26:00,
2013-05-22 06:41:00,71.4,70.8,29.66,NNE,22,1.1,-999.0,98,-99.99,,,0.09,Acu-Link.com,2013-05-22 11:41:00,
2013-05-22 06:56:00,71.2,70.6,29.66,East,90,1.1,-999.0,98,-99.99,,,0.09,Acu-Link.com,2013-05-22 11:56:00,
2013-05-22 07:11:00,71.2,70.6,29.66,NNE,22,3.7,-999.0,98,-99.99,,,0.09,Acu-Link.com,2013-05-22 12:11:00,
2013-05-22 07:26:00,70.9,70.3,29.66,NW,315,3.7,-999.0,98,-99.99,,,0.09,Acu-Link.com,2013-05-22 12:26:00,
2013-05-22 07:42:00,71.8,71.2,29.66,North,0,2.2,-999.0,98,-99.99,,,0.09,Acu-Link.com,2013-05-22 12:42:00,
2013-05-22 07:57:00,73.0,72.4,29.68,ENE,67,3.2,-999.0,98,-99.99,,,0.09,Acu-Link.com,2013-05-22 12:57:00,
2013-05-22 08:12:00,73.2,72.6,29.68,North,0,6.8,-999.0,98,-99.99,,,0.09,Acu-Link.com,2013-05-22 13:12:00,
2013-05-22 08:27:00,74.7,74.1,29.68,NNW,337,4.7,-999.0,98,-99.99,,,0.09,Acu-Link.com,2013-05-22 13:27:00,
2013-05-22 08:42:00,74.3,73.7,29.69,NNW,337,8.3,-999.0,98,-99.99,,,0.09,Acu-Link.com,2013-05-22 13:42:00,
2013-05-22 08:57:00,74.1,73.5,29.70,NE,45,2.7,-999.0,98,-99.99,,,0.09,Acu-Link.com,2013-05-22 13:57:00,
2013-05-22 09:13:00,74.7,74.1,29.71,NW,315,4.7,-999.0,98,-99.99,,,0.09,Acu-Link.com,2013-05-22 14:13:00,
2013-05-22 09:28:00,74.8,74.2,29.72,ESE,112,5.3,-999.0,98,-99.99,,,0.09,Acu-Link.com,2013-05-22 14:28:00,
2013-05-22 09:43:00,74.3,73.7,29.72,ENE,67,4.7,-999.0,98,-99.99,,,0.09,Acu-Link.com,2013-05-22 14:43:00,
2013-05-22 09:58:00,75.2,74.6,29.74,NE,45,4.7,-999.0,98,-99.99,,,0.09,Acu-Link.com,2013-05-22 14:58:00,
2013-05-22 10:13:00,75.9,74.7,29.74,East,90,5.3,-999.0,96,-99.99,,,0.09,Acu-Link.com,2013-05-22 15:13:00,
2013-05-22 10:28:00,76.1,74.6,29.75,NE,45,2.7,-999.0,95,-99.99,,,0.09,Acu-Link.com,2013-05-22 15:28:00,
2013-05-22 10:43:00,77.7,75.5,29.74,ENE,67,4.7,-999.0,93,-99.99,,,0.09,Acu-Link.com,2013-05-22 15:43:00,
2013-05-22 10:58:00,77.5,75.0,29.74,NNW,337,5.8,-999.0,92,-99.99,,,0.09,Acu-Link.com,2013-05-22 15:58:00,
2013-05-22 11:13:00,79.0,75.5,29.74,West,270,2.7,-999.0,89,-99.99,,,0.09,Acu-Link.com,2013-05-22 16:13:00,
2013-05-22 11:29:00,81.9,76.9,29.73,SSE,157,1.7,-999.0,85,-99.99,,,0.09,Acu-Link.com,2013-05-22 16:29:00,
2013-05-22 11:44:00,82.8,77.1,29.73,ESE,112,1.7,-999.0,83,-99.99,,,0.09,Acu-Link.com,2013-05-22 16:44:00,
2013-05-22 11:59:00,83.3,76.8,29.72,NNW,337,3.7,-999.0,81,-99.99,,,0.09,Acu-Link.com,2013-05-22 16:59:00,
2013-05-22 12:14:00,84.4,77.2,29.73,SSE,157,3.2,-999.0,79,-99.99,,,0.09,Acu-Link.com,2013-05-22 17:14:00,
2013-05-22 12:29:00,82.9,76.8,29.72,West,270,1.7,-999.0,82,-99.99,,,0.09,Acu-Link.com,2013-05-22 17:29:00,
2013-05-22 12:44:00,83.3,77.2,29.72,NNW,337,2.7,-999.0,82,-99.99,,,0.09,Acu-Link.com,2013-05-22 17:44:00,
2013-05-22 12:59:00,83.1,77.0,29.71,NE,45,1.1,-999.0,82,-99.99,,,0.09,Acu-Link.com,2013-05-22 17:59:00,
2013-05-22 13:14:00,83.5,77.0,29.71,ESE,112,0.0,-999.0,81,-99.99,,,0.09,Acu-Link.com,2013-05-22 18:14:00,
2013-05-22 13:29:00,83.7,78.0,29.71,SE,135,2.7,-999.0,83,-99.99,,,0.09,Acu-Link.com,2013-05-22 18:29:00,
2013-05-22 13:45:00,82.2,77.2,29.71,ESE,112,1.7,-999.0,85,-99.99,,,0.09,Acu-Link.com,2013-05-22 18:45:00,
2013-05-22 14:00:00,82.6,76.9,29.71,SW,225,1.7,-999.0,83,-99.99,,,0.09,Acu-Link.com,2013-05-22 19:00:00,
2013-05-22 14:15:00,82.8,77.5,29.70,ESE,112,2.7,-999.0,84,-99.99,,,0.09,Acu-Link.com,2013-05-22 19:15:00,
2013-05-22 14:30:00,83.1,77.7,29.70,ENE,67,1.1,-999.0,84,-99.99,,,0.09,Acu-Link.com,2013-05-22 19:30:00,
2013-05-22 14:45:00,84.6,78.8,29.69,NNE,22,2.2,-999.0,83,-99.99,,,0.09,Acu-Link.com,2013-05-22 19:45:00,
2013-05-22 15:00:00,86.0,79.1,29.69,WSW,247,2.2,-999.0,80,-99.99,,,0.09,Acu-Link.com,2013-05-22 20:00:00,
2013-05-22 15:15:00,87.6,79.5,29.69,ENE,67,2.7,-999.0,77,-99.99,,,0.09,Acu-Link.com,2013-05-22 20:15:00,
2013-05-22 15:30:00,86.5,78.8,29.68,ENE,67,1.7,-999.0,78,-99.99,,,0.09,Acu-Link.com,2013-05-22 20:30:00,
2013-05-22 15:46:00,86.9,78.4,29.68,West,270,0.0,-999.0,76,-99.99,,,0.09,Acu-Link.com,2013-05-22 20:46:00,
2013-05-22 16:01:00,88.2,78.8,29.68,SE,135,3.2,-999.0,74,-99.99,,,0.09,Acu-Link.com,2013-05-22 21:01:00,
2013-05-22 16:16:00,88.3,79.3,29.68,South,180,1.7,-999.0,75,-99.99,,,0.09,Acu-Link.com,2013-05-22 21:16:00,
2013-05-22 16:31:00,87.6,79.1,29.68,ENE,67,2.2,-999.0,76,-99.99,,,0.09,Acu-Link.com,2013-05-22 21:31:00,
2013-05-22 16:47:00,87.6,79.9,29.68,East,90,3.7,-999.0,78,-99.99,,,0.09,Acu-Link.com,2013-05-22 21:47:00,
2013-05-22 17:02:00,88.2,80.1,29.68,SE,135,3.2,-999.0,77,-99.99,,,0.09,Acu-Link.com,2013-05-22 22:02:00,
2013-05-22 17:17:00,87.1,79.4,29.68,NNE,22,3.2,-999.0,78,-99.99,,,0.09,Acu-Link.com,2013-05-22 22:17:00,
2013-05-22 17:32:00,88.0,80.3,29.67,SE,135,2.7,-999.0,78,-99.99,,,0.09,Acu-Link.com,2013-05-22 22:32:00,
2013-05-22 17:48:00,87.4,79.3,29.68,SSE,157,6.3,-999.0,77,-99.99,,,0.09,Acu-Link.com,2013-05-22 22:48:00,
2013-05-22 18:03:00,86.4,78.7,29.69,ESE,112,0.0,-999.0,78,-99.99,,,0.09,Acu-Link.com,2013-05-22 23:03:00,
2013-05-22 18:18:00,87.1,79.8,29.68,ESE,112,2.7,-999.0,79,-99.99,,,0.09,Acu-Link.com,2013-05-22 23:18:00,
2013-05-22 18:33:00,86.0,79.8,29.68,SE,135,1.7,-999.0,82,-99.99,,,0.09,Acu-Link.com,2013-05-22 23:33:00,
2013-05-22 18:49:00,84.6,78.8,29.68,ESE,112,3.2,-999.0,83,-99.99,,,0.09,Acu-Link.com,2013-05-22 23:49:00,
2013-05-22 19:04:00,83.7,78.3,29.69,SE,135,0.0,-999.0,84,-99.99,,,0.09,Acu-Link.com,2013-05-23 00:04:00,
2013-05-22 19:19:00,83.1,78.1,29.70,ESE,112,2.2,-999.0,85,-99.99,,,0.09,Acu-Link.com,2013-05-23 00:19:00,
2013-05-22 19:34:00,82.0,77.7,29.69,SSE,157,2.7,-999.0,87,-99.99,,,0.09,Acu-Link.com,2013-05-23 00:34:00,
2013-05-22 19:49:00,81.3,77.7,29.70,SW,225,2.2,-999.0,89,-99.99,,,0.09,Acu-Link.com,2013-05-23 00:49:00,
2013-05-22 20:04:00,80.1,76.9,29.71,SSE,157,2.7,-999.0,90,-99.99,,,0.09,Acu-Link.com,2013-05-23 01:04:00,
2013-05-22 20:19:00,79.2,76.7,29.70,ESE,112,1.1,-999.0,92,-99.99,,,0.09,Acu-Link.com,2013-05-23 01:19:00,
2013-05-22 20:34:00,78.3,76.4,29.71,SSE,157,0.0,-999.0,94,-99.99,,,0.09,Acu-Link.com,2013-05-23 01:34:00,
2013-05-22 20:49:00,77.5,76.9,29.72,SSE,157,0.0,-999.0,98,-99.99,,,0.09,Acu-Link.com,2013-05-23 01:49:00,
2013-05-22 21:05:00,76.6,76.0,29.72,South,180,0.0,-999.0,98,-99.99,,,0.09,Acu-Link.com,2013-05-23 02:05:00,
2013-05-22 21:20:00,76.3,75.7,29.72,SSE,157,1.7,-999.0,98,-99.99,,,0.09,Acu-Link.com,2013-05-23 02:20:00,
2013-05-22 21:35:00,75.7,75.1,29.73,SSE,157,0.0,-999.0,98,-99.99,,,0.09,Acu-Link.com,2013-05-23 02:35:00,
2013-05-22 21:51:00,75.2,74.6,29.74,ESE,112,0.0,-999.0,98,-99.99,,,0.09,Acu-Link.com,2013-05-23 02:51:00,
2013-05-22 22:07:00,74.8,74.2,29.75,ENE,67,0.0,-999.0,98,-99.99,,,0.09,Acu-Link.com,2013-05-23 03:07:00,
2013-05-22 22:22:00,74.5,73.9,29.75,South,180,0.0,-999.0,98,-99.99,,,0.09,Acu-Link.com,2013-05-23 03:22:00,
2013-05-22 22:37:00,74.3,73.7,29.74,ESE,112,0.0,-999.0,98,-99.99,,,0.09,Acu-Link.com,2013-05-23 03:37:00,
2013-05-22 22:52:00,73.8,73.2,29.75,ESE,112,0.0,-999.0,98,-99.99,,,0.09,Acu-Link.com,2013-05-23 03:52:00,
2013-05-22 23:08:00,73.4,72.8,29.75,NE,45,0.0,-999.0,98,-99.99,,,0.09,Acu-Link.com,2013-05-23 04:08:00,
2013-05-22 23:23:00,72.9,72.3,29.76,ESE,112,0.0,-999.0,98,-99.99,,,0.09,Acu-Link.com,2013-05-23 04:23:00,
2013-05-22 23:38:00,72.3,71.7,29.76,SSE,157,0.0,-999.0,98,-99.99,,,0.09,Acu-Link.com,2013-05-23 04:38:00,
2013-05-22 23:53:00,72.1,71.5,29.76,SE,135,0.0,-999.0,98,-99.99,,,0.09,Acu-Link.com,2013-05-23 04:53:00,